createdAt,value
2022-07-25T00:00:38.028Z,13.10
2022-07-25T00:03:06.827Z,11.50
2022-07-25T00:05:39.303Z,13.10
2022-07-25T00:08:07.674Z,11.40
2022-07-25T00:10:35.975Z,11.40
2022-07-25T00:13:04.640Z,12.10
2022-07-25T00:15:33.027Z,11.80
2022-07-25T00:18:01.094Z,12.40
2022-07-25T00:20:29.373Z,12.40
2022-07-25T00:22:57.687Z,12.60
2022-07-25T00:25:25.879Z,11.60
2022-07-25T00:27:54.112Z,13.40
2022-07-25T00:30:22.923Z,12.10
2022-07-25T00:32:51.279Z,14.30
2022-07-25T00:35:19.667Z,13.30
2022-07-25T00:37:47.690Z,11.30
2022-07-25T00:40:15.969Z,12.10
2022-07-25T00:42:44.288Z,13.10
2022-07-25T00:45:12.880Z,12.70
2022-07-25T00:47:41.265Z,11.90
2022-07-25T00:50:09.745Z,14.10
2022-07-25T00:52:38.219Z,12.20
2022-07-25T00:55:07.319Z,13.60
2022-07-25T00:57:35.516Z,12.00
2022-07-25T01:00:07.359Z,12.50
2022-07-25T01:02:35.724Z,14.80
2022-07-25T01:05:05.793Z,12.80
2022-07-25T01:07:34.955Z,13.20
2022-07-25T01:10:04.611Z,12.40
2022-07-25T01:12:32.844Z,12.70
2022-07-25T01:15:00.917Z,12.30
2022-07-25T01:17:29.312Z,11.90
2022-07-25T01:19:57.487Z,14.00
2022-07-25T01:22:25.648Z,14.40
2022-07-25T01:24:53.745Z,13.70
2022-07-25T01:27:21.919Z,14.30
2022-07-25T01:29:50.298Z,12.40
2022-07-25T01:32:18.561Z,12.60
2022-07-25T01:34:46.733Z,15.60
2022-07-25T01:37:14.807Z,12.10
2022-07-25T01:39:43.082Z,14.30
2022-07-25T01:42:11.396Z,13.10
2022-07-25T01:44:39.645Z,11.80
2022-07-25T01:47:08.129Z,13.10
2022-07-25T01:49:36.421Z,12.00
2022-07-25T01:52:04.883Z,11.20
2022-07-25T01:54:33.198Z,12.60
2022-07-25T01:57:01.800Z,12.30
2022-07-25T01:59:30.135Z,13.60
2022-07-25T02:01:59.044Z,13.20
2022-07-25T02:04:27.462Z,12.10
2022-07-25T02:06:55.930Z,10.90
2022-07-25T02:09:24.276Z,11.80
2022-07-25T02:11:52.631Z,11.30
2022-07-25T02:14:23.183Z,12.10
2022-07-25T02:16:51.717Z,13.10
2022-07-25T02:19:19.985Z,12.70
2022-07-25T02:21:48.156Z,12.70
2022-07-25T02:24:16.810Z,12.30
2022-07-25T02:26:45.189Z,14.50
2022-07-25T02:29:13.688Z,11.30
2022-07-25T02:31:41.871Z,14.00
2022-07-25T02:34:10.480Z,12.50
2022-07-25T02:36:39.223Z,13.00
2022-07-25T02:39:07.501Z,11.60
2022-07-25T02:41:35.790Z,11.50
2022-07-25T02:44:05.447Z,11.90
2022-07-25T02:46:34.111Z,12.00
2022-07-25T02:49:03.372Z,12.20
2022-07-25T02:51:31.856Z,14.90
2022-07-25T02:53:59.929Z,12.70
2022-07-25T02:56:29.873Z,11.20
2022-07-25T02:58:58.960Z,11.00
2022-07-25T03:01:27.343Z,10.60
2022-07-25T03:03:56.567Z,13.80
2022-07-25T03:06:25.022Z,12.50
2022-07-25T03:08:53.305Z,10.70
2022-07-25T03:11:22.666Z,11.10
2022-07-25T03:13:50.967Z,12.50
2022-07-25T03:16:19.287Z,12.10
2022-07-25T03:18:47.633Z,11.50
2022-07-25T03:21:15.932Z,13.80
2022-07-25T03:23:46.897Z,10.50
2022-07-25T03:26:18.919Z,36.80
2022-07-25T03:28:47.226Z,12.20
2022-07-25T03:31:15.531Z,13.60
2022-07-25T03:33:43.692Z,13.30
2022-07-25T03:36:12.046Z,9.80
2022-07-25T03:38:40.405Z,10.50
2022-07-25T03:41:08.485Z,13.00
2022-07-25T03:43:37.276Z,11.30
2022-07-25T03:46:05.589Z,11.50
2022-07-25T03:48:33.729Z,11.90
2022-07-25T03:51:06.718Z,12.60
2022-07-25T03:53:56.066Z,11.30
2022-07-25T03:56:24.473Z,11.00
2022-07-25T03:58:53.057Z,12.20
2022-07-25T04:01:21.486Z,10.90
2022-07-25T04:03:51.245Z,12.00
2022-07-25T04:06:19.858Z,11.40
2022-07-25T04:08:48.318Z,11.80
2022-07-25T04:11:16.797Z,11.60
2022-07-25T04:13:45.113Z,13.20
2022-07-25T04:16:18.509Z,11.70
2022-07-25T04:18:52.309Z,11.30
2022-07-25T04:21:20.682Z,9.30
2022-07-25T04:23:50.094Z,11.80
2022-07-25T04:26:19.634Z,11.50
2022-07-25T04:28:48.206Z,10.60
2022-07-25T04:31:17.357Z,9.60
2022-07-25T04:33:46.358Z,12.10
2022-07-25T04:36:14.564Z,11.30
2022-07-25T04:38:42.922Z,13.90
2022-07-25T04:41:12.116Z,9.40
2022-07-25T04:43:43.627Z,10.70
2022-07-25T04:46:21.706Z,9.40
2022-07-25T04:48:51.059Z,11.30
2022-07-25T04:51:19.873Z,12.20
2022-07-25T04:53:48.150Z,9.90
2022-07-25T04:56:16.634Z,9.20
2022-07-25T04:58:44.822Z,9.60
2022-07-25T05:01:13.146Z,11.40
2022-07-25T05:03:41.674Z,14.10
2022-07-25T05:06:19.764Z,10.50
2022-07-25T05:08:48.063Z,11.90
2022-07-25T05:11:16.199Z,10.70
2022-07-25T05:18:19.891Z,11.20
2022-07-25T05:20:48.308Z,10.80
2022-07-25T05:23:16.459Z,11.10
2022-07-25T05:25:44.830Z,10.70
2022-07-25T05:28:14.977Z,10.40
2022-07-25T05:30:43.079Z,10.10
2022-07-25T05:33:11.523Z,8.70
2022-07-25T05:35:39.882Z,8.10
2022-07-25T05:38:08.176Z,9.00
2022-07-25T05:40:36.531Z,8.20
2022-07-25T05:43:04.874Z,9.90
2022-07-25T05:45:33.138Z,8.70
2022-07-25T05:48:01.311Z,8.90
2022-07-25T05:50:29.508Z,10.40
2022-07-25T05:52:57.688Z,9.30
2022-07-25T05:55:25.934Z,9.30
2022-07-25T05:57:54.369Z,9.70
2022-07-25T06:00:22.823Z,10.60
2022-07-25T06:02:51.225Z,10.40
2022-07-25T06:05:19.563Z,9.40
2022-07-25T06:07:47.865Z,9.30
2022-07-25T06:10:16.177Z,9.90
2022-07-25T06:17:20.961Z,9.40
2022-07-25T06:19:49.071Z,11.50
2022-07-25T06:22:19.978Z,9.80
2022-07-25T06:24:48.894Z,9.70
2022-07-25T06:27:20.547Z,12.50
2022-07-25T06:29:49.946Z,11.20
2022-07-25T06:32:18.498Z,9.00
2022-07-25T06:34:46.629Z,10.70
2022-07-25T06:37:16.280Z,9.70
2022-07-25T06:39:46.035Z,8.80
2022-07-25T06:42:14.610Z,9.50
2022-07-25T06:44:43.480Z,10.60
2022-07-25T06:47:13.436Z,8.90
2022-07-25T06:49:42.570Z,8.70
2022-07-25T06:52:11.272Z,9.90
2022-07-25T06:54:39.610Z,9.70
2022-07-25T06:57:09.102Z,9.20
2022-07-25T06:59:37.317Z,8.90
2022-07-25T07:02:05.506Z,10.50
2022-07-25T07:04:33.695Z,11.10
2022-07-25T07:07:02.178Z,8.30
2022-07-25T07:09:30.654Z,10.00
2022-07-25T07:11:59.445Z,10.30
2022-07-25T07:14:28.182Z,10.40
2022-07-25T07:16:57.052Z,8.70
2022-07-25T07:19:25.211Z,9.50
2022-07-25T07:21:53.839Z,9.60
2022-07-25T07:24:24.565Z,11.20
2022-07-25T07:26:54.375Z,9.20
2022-07-25T07:29:22.544Z,7.90
2022-07-25T07:31:50.786Z,8.60
2022-07-25T07:34:19.306Z,9.80
2022-07-25T07:36:47.653Z,8.50
2022-07-25T07:39:16.751Z,7.90
2022-07-25T07:41:45.340Z,7.90
2022-07-25T07:44:13.664Z,10.90
2022-07-25T07:46:42.385Z,7.70
2022-07-25T07:49:11.315Z,7.20
2022-07-25T07:51:39.984Z,9.40
2022-07-25T07:54:26.794Z,8.30
2022-07-25T07:56:55.196Z,9.90
2022-07-25T07:59:23.460Z,8.10
2022-07-25T08:01:52.299Z,8.90
2022-07-25T08:04:20.841Z,9.60
2022-07-25T08:06:49.113Z,9.60
2022-07-25T08:09:17.238Z,8.30
2022-07-25T08:11:45.585Z,7.40
2022-07-25T08:14:13.853Z,7.20
2022-07-25T08:16:42.404Z,9.80
2022-07-25T08:19:10.954Z,7.80
2022-07-25T08:21:40.004Z,7.00
2022-07-25T08:24:08.543Z,12.30
2022-07-25T08:26:37.512Z,8.60
2022-07-25T08:29:18.849Z,8.50
2022-07-25T08:31:48.465Z,6.70
2022-07-25T08:34:16.970Z,7.90
2022-07-25T08:36:45.237Z,8.00
2022-07-25T08:39:14.653Z,8.20
2022-07-25T08:41:43.643Z,7.00
2022-07-25T08:44:14.794Z,7.70
2022-07-25T08:46:44.290Z,6.80
2022-07-25T08:49:13.205Z,7.20
2022-07-25T08:51:41.827Z,7.00
2022-07-25T08:54:11.343Z,13.30
2022-07-25T08:56:39.652Z,8.40
2022-07-25T08:59:07.991Z,6.30
2022-07-25T09:01:36.403Z,7.40
2022-07-25T09:04:05.665Z,7.40
2022-07-25T09:06:34.114Z,7.30
2022-07-25T09:09:05.478Z,6.90
2022-07-25T09:11:36.819Z,10.20
2022-07-25T09:14:13.121Z,6.80
2022-07-25T09:16:45.309Z,7.10
2022-07-25T09:19:17.009Z,7.90
2022-07-25T09:21:57.604Z,5.70
2022-07-25T09:24:29.179Z,6.20
2022-07-25T09:26:59.941Z,5.70
2022-07-25T09:29:32.716Z,7.50
2022-07-25T09:32:02.527Z,6.80
2022-07-25T09:34:39.488Z,6.80
2022-07-25T09:37:10.047Z,7.10
2022-07-25T09:39:46.826Z,9.90
2022-07-25T09:42:29.670Z,6.70
2022-07-25T09:45:28.281Z,5.60
2022-07-25T09:48:05.067Z,11.40
2022-07-25T09:50:33.823Z,6.00
2022-07-25T09:53:03.021Z,7.40
2022-07-25T09:55:31.682Z,6.90
2022-07-25T09:57:59.795Z,7.30
2022-07-25T10:00:29.555Z,6.80
2022-07-25T10:03:16.728Z,9.10
2022-07-25T10:06:01.450Z,6.50
2022-07-25T10:08:35.147Z,6.50
2022-07-25T10:11:05.291Z,7.00
2022-07-25T10:13:36.614Z,8.10
2022-07-25T10:16:19.068Z,7.10
2022-07-25T10:23:32.768Z,7.70
2022-07-25T10:26:14.026Z,6.40
2022-07-25T10:28:51.450Z,7.40
2022-07-25T10:31:50.323Z,7.10
2022-07-25T10:34:33.747Z,7.10
2022-07-25T10:37:14.746Z,7.70
2022-07-25T10:39:45.788Z,7.50
2022-07-25T10:42:20.640Z,8.20
2022-07-25T10:44:50.927Z,6.10
2022-07-25T10:47:23.868Z,7.20
2022-07-25T10:50:16.782Z,7.10
2022-07-25T10:52:59.799Z,7.00
2022-07-25T10:55:30.361Z,6.10
2022-07-25T10:58:17.551Z,7.70
2022-07-25T11:00:46.407Z,5.80
2022-07-25T11:03:18.062Z,6.00
2022-07-25T11:05:48.266Z,6.10
2022-07-25T11:08:22.036Z,5.40
2022-07-25T11:10:52.658Z,7.20
2022-07-25T11:13:20.916Z,6.60
2022-07-25T11:20:22.835Z,6.40
2022-07-25T11:27:37.642Z,5.20
2022-07-25T11:30:07.989Z,5.70
2022-07-25T11:32:43.543Z,5.80
2022-07-25T11:35:14.165Z,6.00
2022-07-25T11:37:49.015Z,4.40
2022-07-25T11:40:18.888Z,4.40
2022-07-25T11:42:52.796Z,7.10
2022-07-25T11:45:22.133Z,5.60
2022-07-25T11:48:11.907Z,5.50
2022-07-25T11:50:42.655Z,4.70
2022-07-25T11:53:14.787Z,5.70
2022-07-25T11:55:44.535Z,5.60
2022-07-25T11:58:14.088Z,10.10
2022-07-25T12:00:46.289Z,4.70
2022-07-25T12:03:21.066Z,4.80
2022-07-25T12:05:50.751Z,5.90
2022-07-25T12:08:22.481Z,5.00
2022-07-25T12:10:55.271Z,7.20
2022-07-25T12:13:25.860Z,8.10
2022-07-25T12:15:56.097Z,6.50
2022-07-25T12:18:24.786Z,6.40
2022-07-25T12:20:53.424Z,5.80
2022-07-25T12:23:22.231Z,6.30
2022-07-25T12:25:51.172Z,5.80
2022-07-25T12:28:19.320Z,5.00
2022-07-25T12:30:52.843Z,5.70
2022-07-25T12:33:24.719Z,5.60
2022-07-25T12:35:53.421Z,8.60
2022-07-25T12:38:21.668Z,6.60
2022-07-25T12:40:50.581Z,4.70
2022-07-25T12:43:18.866Z,5.10
2022-07-25T12:45:47.215Z,7.90
2022-07-25T12:48:15.880Z,5.50
2022-07-25T12:50:45.429Z,6.10
2022-07-25T12:53:14.104Z,5.80
2022-07-25T12:55:42.220Z,9.40
2022-07-25T12:58:10.447Z,4.60
2022-07-25T13:00:38.675Z,5.50
2022-07-25T13:03:06.885Z,7.20
2022-07-25T13:05:35.114Z,3.80
2022-07-25T13:08:06.449Z,4.50
2022-07-25T13:10:34.740Z,4.50
2022-07-25T13:13:02.998Z,3.30
2022-07-25T13:15:31.409Z,4.30
2022-07-25T13:17:59.612Z,4.50
2022-07-25T13:20:27.810Z,5.10
2022-07-25T13:22:55.980Z,4.70
2022-07-25T13:25:24.197Z,4.90
2022-07-25T13:27:52.265Z,6.50
2022-07-25T13:30:20.452Z,4.40
2022-07-25T13:32:50.333Z,4.00
2022-07-25T13:35:20.712Z,5.80
2022-07-25T13:37:49.254Z,5.20
2022-07-25T13:40:17.352Z,4.10
2022-07-25T13:42:45.633Z,3.70
2022-07-25T13:45:13.886Z,6.40
2022-07-25T13:47:42.195Z,4.40
2022-07-25T13:50:10.639Z,3.60
2022-07-25T13:52:38.874Z,5.50
2022-07-25T13:55:07.840Z,3.20
2022-07-25T13:57:36.014Z,4.70
2022-07-25T14:00:06.065Z,4.90
2022-07-25T14:02:34.413Z,5.70
2022-07-25T14:05:04.421Z,5.40
2022-07-25T14:07:34.280Z,4.50
2022-07-25T14:10:02.900Z,7.50
2022-07-25T14:12:31.113Z,3.80
2022-07-25T14:14:59.360Z,6.40
2022-07-25T14:17:30.361Z,6.80
2022-07-25T14:19:58.764Z,4.50
2022-07-25T14:22:27.289Z,5.50
2022-07-25T14:24:55.577Z,4.70
2022-07-25T14:27:24.536Z,5.60
2022-07-25T14:29:53.951Z,3.90
2022-07-25T14:32:22.204Z,3.90
2022-07-25T14:34:52.380Z,5.40
2022-07-25T14:37:21.217Z,7.50
2022-07-25T14:39:50.697Z,5.70
2022-07-25T14:42:18.839Z,6.80
2022-07-25T14:44:47.018Z,7.90
2022-07-25T14:47:15.521Z,6.80
2022-07-25T14:49:43.824Z,5.60
2022-07-25T14:52:13.346Z,5.40
2022-07-25T14:54:42.055Z,4.40
2022-07-25T14:57:11.185Z,5.40
2022-07-25T14:59:39.396Z,7.10
2022-07-25T15:02:07.578Z,4.20
2022-07-25T15:04:35.805Z,3.70
2022-07-25T15:07:04.086Z,6.90
2022-07-25T15:09:32.219Z,10.20
2022-07-25T15:12:00.473Z,3.30
2022-07-25T15:14:29.645Z,5.00
2022-07-25T15:16:57.811Z,4.90
2022-07-25T15:19:26.384Z,4.10
2022-07-25T15:21:54.978Z,3.50
2022-07-25T15:24:28.740Z,5.70
2022-07-25T15:26:58.490Z,5.80
2022-07-25T15:29:28.006Z,5.10
2022-07-25T15:31:56.909Z,6.90
2022-07-25T15:34:25.291Z,4.40
2022-07-25T15:36:54.412Z,4.70
2022-07-25T15:39:23.421Z,5.20
2022-07-25T15:41:51.529Z,2.90
2022-07-25T15:44:19.926Z,4.80
2022-07-25T15:46:48.110Z,3.90
2022-07-25T15:49:16.429Z,4.40
2022-07-25T15:51:44.582Z,2.70
2022-07-25T15:54:12.624Z,4.10
2022-07-25T15:56:41.221Z,4.80
2022-07-25T15:59:10.101Z,3.30
2022-07-25T16:01:38.602Z,3.50
2022-07-25T16:04:06.887Z,5.00
2022-07-25T16:06:35.183Z,5.30
2022-07-25T16:09:04.348Z,3.80
2022-07-25T16:11:35.753Z,3.50
2022-07-25T16:14:04.010Z,4.00
2022-07-25T16:16:32.649Z,3.00
2022-07-25T16:19:00.774Z,7.10
2022-07-25T16:21:29.212Z,2.80
2022-07-25T16:23:57.314Z,3.40
2022-07-25T16:26:25.695Z,4.80
2022-07-25T16:28:57.652Z,4.00
2022-07-25T16:31:26.719Z,3.30
2022-07-25T16:33:54.926Z,3.50
2022-07-25T16:36:23.098Z,8.50
2022-07-25T16:38:53.531Z,5.00
2022-07-25T16:41:21.663Z,3.60
2022-07-25T16:43:49.765Z,5.70
2022-07-25T16:46:17.986Z,4.70
2022-07-25T16:48:46.434Z,3.60
2022-07-25T16:51:14.500Z,3.40
2022-07-25T16:53:42.796Z,3.20
2022-07-25T16:56:10.977Z,4.00
2022-07-25T16:58:39.283Z,3.60
2022-07-25T17:01:07.467Z,3.00
2022-07-25T17:03:35.751Z,2.50
2022-07-25T17:06:04.361Z,3.90
2022-07-25T17:08:34.457Z,3.20
2022-07-25T17:11:03.641Z,4.80
2022-07-25T17:13:31.777Z,4.30
2022-07-25T17:16:00.034Z,3.70
2022-07-25T17:18:28.183Z,3.40
2022-07-25T17:20:56.590Z,2.50
2022-07-25T17:23:25.279Z,8.00
2022-07-25T17:25:53.930Z,2.70
2022-07-25T17:28:22.802Z,4.60
2022-07-25T17:30:51.254Z,3.80
2022-07-25T17:33:19.508Z,4.90
2022-07-25T17:35:47.923Z,5.50
2022-07-25T17:38:16.246Z,4.30
2022-07-25T17:40:44.647Z,3.10
2022-07-25T17:43:12.887Z,5.10
2022-07-25T17:45:41.149Z,3.70
2022-07-25T17:48:09.345Z,5.20
2022-07-25T17:50:37.638Z,5.50
2022-07-25T17:53:06.102Z,6.30
2022-07-25T17:55:38.711Z,6.40
2022-07-25T17:58:07.438Z,5.00
2022-07-25T18:00:35.728Z,4.90
2022-07-25T18:03:04.222Z,3.50
2022-07-25T18:05:32.381Z,6.70
2022-07-25T18:08:03.033Z,7.00
2022-07-25T18:10:31.519Z,7.50
2022-07-25T18:13:02.113Z,4.80
2022-07-25T18:15:30.619Z,4.20
2022-07-25T18:17:58.903Z,7.20
2022-07-25T18:20:28.345Z,8.10
2022-07-25T18:22:58.751Z,14.20
2022-07-25T18:25:27.368Z,13.80
2022-07-25T18:27:55.581Z,10.50
2022-07-25T18:30:27.277Z,20.40
2022-07-25T18:35:25.424Z,13.00
2022-07-25T18:37:53.742Z,30.60
2022-07-25T18:40:22.062Z,23.30
2022-07-25T18:42:50.272Z,17.20
2022-07-25T18:45:18.484Z,16.50
2022-07-25T18:47:47.206Z,14.50
2022-07-25T18:50:15.369Z,15.40
2022-07-25T18:52:43.941Z,17.30
2022-07-25T18:55:12.304Z,12.40
2022-07-25T18:57:40.377Z,14.40
2022-07-25T19:00:09.456Z,12.40
2022-07-25T19:02:37.601Z,10.60
2022-07-25T19:05:06.653Z,10.10
2022-07-25T19:07:35.753Z,7.40
2022-07-25T19:10:04.570Z,10.40
2022-07-25T19:12:32.669Z,11.00
2022-07-25T19:15:00.824Z,26.10
2022-07-25T19:17:29.002Z,6.80
2022-07-25T19:19:57.228Z,6.40
2022-07-25T19:22:25.386Z,5.50
2022-07-25T19:24:53.789Z,12.90
2022-07-25T19:27:25.220Z,6.30
2022-07-25T19:29:55.142Z,8.10
2022-07-25T19:32:24.119Z,9.40
2022-07-25T19:34:52.343Z,7.80
2022-07-25T19:37:20.406Z,9.00
2022-07-25T19:39:49.175Z,6.00
2022-07-25T19:42:17.559Z,6.10
2022-07-25T19:44:46.475Z,8.20
2022-07-25T19:47:14.599Z,6.40
2022-07-25T19:49:43.204Z,6.00
2022-07-25T19:52:11.396Z,6.20
2022-07-25T19:54:39.764Z,5.00
2022-07-25T19:57:07.958Z,9.60
2022-07-25T19:59:36.135Z,7.20
2022-07-25T20:02:04.755Z,7.20
2022-07-25T20:04:33.395Z,5.60
2022-07-25T20:07:02.549Z,8.00
2022-07-25T20:09:31.310Z,6.50
2022-07-25T20:11:59.591Z,7.10
2022-07-25T20:14:27.922Z,7.30
2022-07-25T20:16:56.118Z,4.30
2022-07-25T20:19:24.561Z,5.00
2022-07-25T20:21:52.792Z,6.90
2022-07-25T20:24:21.743Z,6.80
2022-07-25T20:26:50.270Z,6.00
2022-07-25T20:29:18.636Z,6.90
2022-07-25T20:31:47.562Z,6.50
2022-07-25T20:34:15.910Z,5.00
2022-07-25T20:36:47.704Z,6.30
2022-07-25T20:39:16.153Z,6.60
2022-07-25T20:41:44.843Z,6.70
2022-07-25T20:44:13.096Z,6.20
2022-07-25T20:46:41.431Z,5.20
2022-07-25T20:49:10.659Z,5.40
2022-07-25T20:51:42.513Z,5.30
2022-07-25T20:54:10.727Z,8.40
2022-07-25T20:56:39.109Z,6.60
2022-07-25T20:59:07.704Z,5.30
2022-07-25T21:01:38.185Z,5.30
2022-07-25T21:04:08.043Z,4.40
2022-07-25T21:06:36.808Z,5.30
2022-07-25T21:09:06.535Z,5.60
2022-07-25T21:11:36.162Z,4.70
2022-07-25T21:14:05.469Z,6.70
2022-07-25T21:16:33.869Z,5.40
2022-07-25T21:19:02.133Z,6.60
2022-07-25T21:21:31.008Z,6.60
2022-07-25T21:23:59.283Z,6.00
2022-07-25T21:26:27.867Z,6.60
2022-07-25T21:28:56.478Z,4.00
2022-07-25T21:31:25.218Z,6.00
2022-07-25T21:33:53.734Z,6.30
2022-07-25T21:36:22.122Z,7.10
2022-07-25T21:38:50.392Z,5.90
2022-07-25T21:41:18.766Z,5.90
2022-07-25T21:43:47.613Z,6.20
2022-07-25T21:46:15.916Z,4.20
2022-07-25T21:49:02.819Z,5.60
2022-07-25T21:51:40.186Z,4.70
2022-07-25T21:54:09.256Z,7.80
2022-07-25T21:56:37.500Z,4.60
2022-07-25T21:59:06.800Z,6.10
2022-07-25T22:01:35.505Z,5.60
2022-07-25T22:04:05.037Z,5.90
2022-07-25T22:06:33.477Z,5.50
2022-07-25T22:09:01.914Z,6.30
2022-07-25T22:11:42.440Z,5.30
2022-07-25T22:14:15.589Z,6.90
2022-07-25T22:16:43.806Z,6.00
2022-07-25T22:19:12.325Z,6.80
2022-07-25T22:21:41.817Z,6.40
2022-07-25T22:24:10.846Z,6.10
2022-07-25T22:26:39.165Z,5.60
2022-07-25T22:29:07.728Z,5.10
2022-07-25T22:31:39.076Z,4.00
2022-07-25T22:34:07.629Z,6.20
2022-07-25T22:36:35.795Z,5.50
2022-07-25T22:39:04.594Z,7.30
2022-07-25T22:41:33.177Z,5.40
2022-07-25T22:44:01.357Z,7.20
2022-07-25T22:46:32.272Z,6.00
2022-07-25T22:49:01.163Z,4.90
2022-07-25T22:51:29.961Z,5.30
2022-07-25T22:53:58.805Z,5.30
2022-07-25T22:56:28.049Z,5.70
2022-07-25T22:58:56.753Z,6.00
2022-07-25T23:01:25.339Z,5.10
2022-07-25T23:03:53.495Z,4.70
2022-07-25T23:06:22.622Z,5.70
2022-07-25T23:08:51.389Z,8.10
2022-07-25T23:11:19.972Z,5.20
2022-07-25T23:13:48.389Z,5.40
2022-07-25T23:16:16.671Z,8.00
2022-07-25T23:18:45.315Z,6.20
2022-07-25T23:21:13.731Z,6.60
2022-07-25T23:23:41.996Z,6.30
2022-07-25T23:26:10.587Z,5.90
2022-07-25T23:28:39.266Z,5.20
2022-07-25T23:31:07.690Z,6.70
2022-07-25T23:33:36.009Z,7.40
2022-07-25T23:36:05.024Z,6.60
2022-07-25T23:38:33.491Z,4.50
2022-07-25T23:41:02.012Z,5.00
2022-07-25T23:43:57.672Z,6.30
2022-07-25T23:46:22.473Z,4.90
2022-07-25T23:48:57.309Z,4.20
2022-07-25T23:51:26.317Z,4.30
2022-07-25T23:53:54.697Z,4.60
2022-07-25T23:56:23.213Z,6.70
2022-07-25T23:58:51.773Z,5.10
